sensor_id;sensor_type;location;lat;lon;timestamp;P1;durP1;ratioP1;P2;durP2;ratioP2
9310;SDS011;4694;52.464;13.480;2022-08-30T00:00:55;3.70;;;2.95;;
9310;SDS011;4694;52.464;13.480;2022-08-30T00:03:27;3.58;;;2.33;;
9310;SDS011;4694;52.464;13.480;2022-08-30T00:05:54;3.85;;;2.60;;
9310;SDS011;4694;52.464;13.480;2022-08-30T00:08:21;4.30;;;2.65;;
9310;SDS011;4694;52.464;13.480;2022-08-30T00:10:49;3.45;;;3.15;;
9310;SDS011;4694;52.464;13.480;2022-08-30T00:13:16;4.40;;;2.95;;
9310;SDS011;4694;52.464;13.480;2022-08-30T00:15:43;4.68;;;3.13;;
9310;SDS011;4694;52.464;13.480;2022-08-30T00:18:11;4.30;;;3.13;;
9310;SDS011;4694;52.464;13.480;2022-08-30T00:20:39;3.22;;;2.60;;
9310;SDS011;4694;52.464;13.480;2022-08-30T00:23:06;3.28;;;2.97;;
9310;SDS011;4694;52.464;13.480;2022-08-30T00:25:33;5.95;;;3.10;;
9310;SDS011;4694;52.464;13.480;2022-08-30T00:28:00;4.07;;;3.10;;
9310;SDS011;4694;52.464;13.480;2022-08-30T00:30:27;4.35;;;3.42;;
9310;SDS011;4694;52.464;13.480;2022-08-30T00:32:54;4.68;;;3.90;;
9310;SDS011;4694;52.464;13.480;2022-08-30T00:35:23;6.85;;;3.70;;
9310;SDS011;4694;52.464;13.480;2022-08-30T00:37:50;3.67;;;3.22;;
9310;SDS011;4694;52.464;13.480;2022-08-30T00:40:17;3.97;;;3.22;;
9310;SDS011;4694;52.464;13.480;2022-08-30T00:42:46;6.00;;;3.67;;
9310;SDS011;4694;52.464;13.480;2022-08-30T00:45:14;5.38;;;3.45;;
9310;SDS011;4694;52.464;13.480;2022-08-30T00:47:42;5.38;;;3.42;;
9310;SDS011;4694;52.464;13.480;2022-08-30T00:50:10;4.65;;;3.78;;
9310;SDS011;4694;52.464;13.480;2022-08-30T00:52:39;4.60;;;3.42;;
9310;SDS011;4694;52.464;13.480;2022-08-30T00:55:07;4.80;;;3.42;;
9310;SDS011;4694;52.464;13.480;2022-08-30T00:57:34;5.10;;;3.78;;
9310;SDS011;4694;52.464;13.480;2022-08-30T01:00:03;5.55;;;3.60;;
9310;SDS011;4694;52.464;13.480;2022-08-30T01:02:31;7.68;;;4.03;;
9310;SDS011;4694;52.464;13.480;2022-08-30T01:04:58;5.35;;;3.80;;
9310;SDS011;4694;52.464;13.480;2022-08-30T01:07:25;4.55;;;3.65;;
9310;SDS011;4694;52.464;13.480;2022-08-30T01:09:54;5.18;;;4.10;;
9310;SDS011;4694;52.464;13.480;2022-08-30T01:12:21;5.15;;;3.72;;
9310;SDS011;4694;52.464;13.480;2022-08-30T01:14:48;4.78;;;3.85;;
9310;SDS011;4694;52.464;13.480;2022-08-30T01:17:15;4.38;;;3.17;;
9310;SDS011;4694;52.464;13.480;2022-08-30T01:19:44;6.00;;;4.25;;
9310;SDS011;4694;52.464;13.480;2022-08-30T01:22:16;6.50;;;4.40;;
9310;SDS011;4694;52.464;13.480;2022-08-30T01:24:46;4.97;;;3.70;;
9310;SDS011;4694;52.464;13.480;2022-08-30T01:27:14;5.25;;;3.30;;
9310;SDS011;4694;52.464;13.480;2022-08-30T01:29:42;6.35;;;3.58;;
9310;SDS011;4694;52.464;13.480;2022-08-30T01:32:14;4.72;;;4.18;;
9310;SDS011;4694;52.464;13.480;2022-08-30T01:34:42;6.75;;;4.03;;
9310;SDS011;4694;52.464;13.480;2022-08-30T01:37:11;8.23;;;4.50;;
9310;SDS011;4694;52.464;13.480;2022-08-30T01:39:39;4.72;;;4.20;;
9310;SDS011;4694;52.464;13.480;2022-08-30T01:42:08;9.35;;;5.45;;
9310;SDS011;4694;52.464;13.480;2022-08-30T01:44:35;5.97;;;4.50;;
9310;SDS011;4694;52.464;13.480;2022-08-30T01:47:02;6.43;;;4.22;;
9310;SDS011;4694;52.464;13.480;2022-08-30T01:49:29;6.13;;;4.32;;
9310;SDS011;4694;52.464;13.480;2022-08-30T01:51:56;5.85;;;4.20;;
9310;SDS011;4694;52.464;13.480;2022-08-30T01:54:23;9.80;;;4.97;;
9310;SDS011;4694;52.464;13.480;2022-08-30T01:56:50;5.97;;;4.72;;
9310;SDS011;4694;52.464;13.480;2022-08-30T01:59:18;6.28;;;4.82;;
9310;SDS011;4694;52.464;13.480;2022-08-30T02:01:45;6.90;;;3.97;;
9310;SDS011;4694;52.464;13.480;2022-08-30T02:04:12;5.88;;;4.70;;
9310;SDS011;4694;52.464;13.480;2022-08-30T02:06:40;5.15;;;4.18;;
9310;SDS011;4694;52.464;13.480;2022-08-30T02:09:08;7.82;;;4.65;;
9310;SDS011;4694;52.464;13.480;2022-08-30T02:11:35;5.30;;;3.80;;
9310;SDS011;4694;52.464;13.480;2022-08-30T02:14:03;7.47;;;4.00;;
9310;SDS011;4694;52.464;13.480;2022-08-30T02:16:31;7.40;;;5.53;;
9310;SDS011;4694;52.464;13.480;2022-08-30T02:18:58;7.43;;;5.20;;
9310;SDS011;4694;52.464;13.480;2022-08-30T02:21:25;9.55;;;4.68;;
9310;SDS011;4694;52.464;13.480;2022-08-30T02:23:52;6.72;;;4.90;;
9310;SDS011;4694;52.464;13.480;2022-08-30T02:26:19;8.38;;;5.43;;
9310;SDS011;4694;52.464;13.480;2022-08-30T02:28:47;7.88;;;5.70;;
9310;SDS011;4694;52.464;13.480;2022-08-30T02:31:14;7.90;;;4.32;;
9310;SDS011;4694;52.464;13.480;2022-08-30T02:33:42;8.02;;;5.82;;
9310;SDS011;4694;52.464;13.480;2022-08-30T02:36:10;7.10;;;5.38;;
9310;SDS011;4694;52.464;13.480;2022-08-30T02:38:37;6.68;;;5.25;;
9310;SDS011;4694;52.464;13.480;2022-08-30T02:41:04;8.70;;;5.40;;
9310;SDS011;4694;52.464;13.480;2022-08-30T02:43:31;6.07;;;5.15;;
9310;SDS011;4694;52.464;13.480;2022-08-30T02:45:58;8.52;;;5.45;;
9310;SDS011;4694;52.464;13.480;2022-08-30T02:48:25;9.93;;;6.03;;
9310;SDS011;4694;52.464;13.480;2022-08-30T02:50:53;8.23;;;5.22;;
9310;SDS011;4694;52.464;13.480;2022-08-30T02:53:20;6.57;;;4.85;;
9310;SDS011;4694;52.464;13.480;2022-08-30T02:55:47;11.80;;;6.18;;
9310;SDS011;4694;52.464;13.480;2022-08-30T02:58:14;34.60;;;22.45;;
9310;SDS011;4694;52.464;13.480;2022-08-30T03:00:41;7.70;;;5.78;;
9310;SDS011;4694;52.464;13.480;2022-08-30T03:03:08;6.32;;;5.05;;
9310;SDS011;4694;52.464;13.480;2022-08-30T03:05:35;8.35;;;6.13;;
9310;SDS011;4694;52.464;13.480;2022-08-30T03:08:04;7.75;;;5.32;;
9310;SDS011;4694;52.464;13.480;2022-08-30T03:10:31;12.00;;;6.80;;
9310;SDS011;4694;52.464;13.480;2022-08-30T03:12:58;8.90;;;5.82;;
9310;SDS011;4694;52.464;13.480;2022-08-30T03:15:25;9.40;;;6.72;;
9310;SDS011;4694;52.464;13.480;2022-08-30T03:17:53;10.20;;;5.88;;
9310;SDS011;4694;52.464;13.480;2022-08-30T03:20:20;9.63;;;7.25;;
9310;SDS011;4694;52.464;13.480;2022-08-30T03:22:47;8.70;;;6.00;;
9310;SDS011;4694;52.464;13.480;2022-08-30T03:25:16;9.90;;;6.53;;
9310;SDS011;4694;52.464;13.480;2022-08-30T03:27:44;9.43;;;5.73;;
9310;SDS011;4694;52.464;13.480;2022-08-30T03:30:11;10.00;;;7.00;;
9310;SDS011;4694;52.464;13.480;2022-08-30T03:32:38;9.38;;;7.10;;
9310;SDS011;4694;52.464;13.480;2022-08-30T03:35:06;10.07;;;7.15;;
9310;SDS011;4694;52.464;13.480;2022-08-30T03:37:33;11.40;;;7.20;;
9310;SDS011;4694;52.464;13.480;2022-08-30T03:40:01;11.93;;;7.32;;
9310;SDS011;4694;52.464;13.480;2022-08-30T03:42:29;10.55;;;6.68;;
9310;SDS011;4694;52.464;13.480;2022-08-30T03:44:56;12.63;;;8.30;;
9310;SDS011;4694;52.464;13.480;2022-08-30T03:47:26;11.68;;;6.80;;
9310;SDS011;4694;52.464;13.480;2022-08-30T03:49:53;10.50;;;7.10;;
9310;SDS011;4694;52.464;13.480;2022-08-30T03:52:20;10.57;;;6.82;;
9310;SDS011;4694;52.464;13.480;2022-08-30T03:54:47;12.07;;;6.63;;
9310;SDS011;4694;52.464;13.480;2022-08-30T03:57:14;12.80;;;8.35;;
9310;SDS011;4694;52.464;13.480;2022-08-30T03:59:42;14.27;;;9.10;;
9310;SDS011;4694;52.464;13.480;2022-08-30T04:02:09;12.90;;;9.13;;
9310;SDS011;4694;52.464;13.480;2022-08-30T04:04:36;11.27;;;7.75;;
9310;SDS011;4694;52.464;13.480;2022-08-30T04:07:03;12.77;;;8.15;;
9310;SDS011;4694;52.464;13.480;2022-08-30T04:09:30;11.90;;;8.30;;
9310;SDS011;4694;52.464;13.480;2022-08-30T04:11:57;11.27;;;8.43;;
9310;SDS011;4694;52.464;13.480;2022-08-30T04:14:25;13.05;;;8.88;;
9310;SDS011;4694;52.464;13.480;2022-08-30T04:16:53;27.60;;;13.48;;
9310;SDS011;4694;52.464;13.480;2022-08-30T04:19:20;12.43;;;8.70;;
9310;SDS011;4694;52.464;13.480;2022-08-30T04:21:47;18.02;;;11.77;;
9310;SDS011;4694;52.464;13.480;2022-08-30T04:24:14;24.98;;;10.02;;
9310;SDS011;4694;52.464;13.480;2022-08-30T04:26:41;13.35;;;9.15;;
9310;SDS011;4694;52.464;13.480;2022-08-30T04:29:08;13.32;;;9.05;;
9310;SDS011;4694;52.464;13.480;2022-08-30T04:31:40;15.45;;;9.25;;
9310;SDS011;4694;52.464;13.480;2022-08-30T04:34:09;12.05;;;8.70;;
9310;SDS011;4694;52.464;13.480;2022-08-30T04:36:36;16.75;;;10.85;;
9310;SDS011;4694;52.464;13.480;2022-08-30T04:39:03;13.73;;;9.10;;
9310;SDS011;4694;52.464;13.480;2022-08-30T04:41:31;14.35;;;9.68;;
9310;SDS011;4694;52.464;13.480;2022-08-30T04:43:58;14.20;;;8.55;;
9310;SDS011;4694;52.464;13.480;2022-08-30T04:46:27;13.68;;;8.75;;
9310;SDS011;4694;52.464;13.480;2022-08-30T04:48:54;11.50;;;8.80;;
9310;SDS011;4694;52.464;13.480;2022-08-30T04:51:22;11.80;;;8.65;;
9310;SDS011;4694;52.464;13.480;2022-08-30T04:53:49;10.95;;;7.82;;
9310;SDS011;4694;52.464;13.480;2022-08-30T04:56:18;14.05;;;9.27;;
9310;SDS011;4694;52.464;13.480;2022-08-30T04:58:47;13.48;;;9.15;;
9310;SDS011;4694;52.464;13.480;2022-08-30T05:01:16;14.63;;;8.32;;
9310;SDS011;4694;52.464;13.480;2022-08-30T05:03:43;14.93;;;9.40;;
9310;SDS011;4694;52.464;13.480;2022-08-30T05:06:11;15.40;;;10.25;;
9310;SDS011;4694;52.464;13.480;2022-08-30T05:08:39;13.30;;;8.70;;
9310;SDS011;4694;52.464;13.480;2022-08-30T05:11:06;16.55;;;10.10;;
9310;SDS011;4694;52.464;13.480;2022-08-30T05:13:34;16.25;;;9.40;;
9310;SDS011;4694;52.464;13.480;2022-08-30T05:16:02;19.60;;;9.20;;
9310;SDS011;4694;52.464;13.480;2022-08-30T05:18:30;15.38;;;10.18;;
9310;SDS011;4694;52.464;13.480;2022-08-30T05:21:04;16.77;;;9.18;;
9310;SDS011;4694;52.464;13.480;2022-08-30T05:23:31;15.60;;;8.68;;
9310;SDS011;4694;52.464;13.480;2022-08-30T05:26:02;13.70;;;8.30;;
9310;SDS011;4694;52.464;13.480;2022-08-30T05:28:29;14.85;;;9.27;;
9310;SDS011;4694;52.464;13.480;2022-08-30T05:30:56;16.88;;;10.05;;
9310;SDS011;4694;52.464;13.480;2022-08-30T05:33:23;14.23;;;9.38;;
9310;SDS011;4694;52.464;13.480;2022-08-30T05:35:50;12.25;;;8.02;;
9310;SDS011;4694;52.464;13.480;2022-08-30T05:38:18;14.07;;;9.48;;
9310;SDS011;4694;52.464;13.480;2022-08-30T05:40:45;25.45;;;11.73;;
9310;SDS011;4694;52.464;13.480;2022-08-30T05:43:13;23.38;;;11.20;;
9310;SDS011;4694;52.464;13.480;2022-08-30T05:45:40;14.77;;;10.05;;
9310;SDS011;4694;52.464;13.480;2022-08-30T05:48:07;20.98;;;9.60;;
9310;SDS011;4694;52.464;13.480;2022-08-30T05:50:34;16.58;;;9.98;;
9310;SDS011;4694;52.464;13.480;2022-08-30T05:53:01;13.90;;;8.90;;
9310;SDS011;4694;52.464;13.480;2022-08-30T05:55:28;14.98;;;9.50;;
9310;SDS011;4694;52.464;13.480;2022-08-30T05:57:55;14.40;;;9.07;;
9310;SDS011;4694;52.464;13.480;2022-08-30T06:00:23;13.80;;;8.38;;
9310;SDS011;4694;52.464;13.480;2022-08-30T06:02:51;17.75;;;9.23;;
9310;SDS011;4694;52.464;13.480;2022-08-30T06:05:18;17.08;;;10.50;;
9310;SDS011;4694;52.464;13.480;2022-08-30T06:07:45;15.90;;;8.98;;
9310;SDS011;4694;52.464;13.480;2022-08-30T06:10:13;13.00;;;9.07;;
9310;SDS011;4694;52.464;13.480;2022-08-30T06:12:40;15.63;;;9.20;;
9310;SDS011;4694;52.464;13.480;2022-08-30T06:15:07;16.13;;;9.77;;
9310;SDS011;4694;52.464;13.480;2022-08-30T06:17:36;11.18;;;8.93;;
9310;SDS011;4694;52.464;13.480;2022-08-30T06:20:04;11.63;;;8.88;;
9310;SDS011;4694;52.464;13.480;2022-08-30T06:22:31;13.43;;;8.20;;
9310;SDS011;4694;52.464;13.480;2022-08-30T06:24:59;12.32;;;8.10;;
9310;SDS011;4694;52.464;13.480;2022-08-30T06:27:25;13.40;;;7.72;;
9310;SDS011;4694;52.464;13.480;2022-08-30T06:29:52;10.57;;;7.20;;
9310;SDS011;4694;52.464;13.480;2022-08-30T06:32:19;11.43;;;7.97;;
9310;SDS011;4694;52.464;13.480;2022-08-30T06:34:48;13.68;;;8.07;;
9310;SDS011;4694;52.464;13.480;2022-08-30T06:37:15;8.65;;;7.30;;
9310;SDS011;4694;52.464;13.480;2022-08-30T06:39:42;14.10;;;8.68;;
9310;SDS011;4694;52.464;13.480;2022-08-30T06:42:09;11.63;;;7.75;;
9310;SDS011;4694;52.464;13.480;2022-08-30T06:44:36;12.02;;;8.10;;
9310;SDS011;4694;52.464;13.480;2022-08-30T06:47:03;11.05;;;7.60;;
9310;SDS011;4694;52.464;13.480;2022-08-30T06:49:30;11.30;;;6.88;;
9310;SDS011;4694;52.464;13.480;2022-08-30T06:51:59;9.40;;;6.50;;
9310;SDS011;4694;52.464;13.480;2022-08-30T06:54:25;14.38;;;8.15;;
9310;SDS011;4694;52.464;13.480;2022-08-30T06:56:52;9.80;;;6.93;;
9310;SDS011;4694;52.464;13.480;2022-08-30T06:59:19;14.82;;;7.15;;
9310;SDS011;4694;52.464;13.480;2022-08-30T07:01:46;11.70;;;7.35;;
9310;SDS011;4694;52.464;13.480;2022-08-30T07:04:13;10.63;;;7.43;;
9310;SDS011;4694;52.464;13.480;2022-08-30T07:06:41;9.82;;;6.75;;
9310;SDS011;4694;52.464;13.480;2022-08-30T07:09:09;8.20;;;6.35;;
9310;SDS011;4694;52.464;13.480;2022-08-30T07:11:36;13.73;;;7.53;;
9310;SDS011;4694;52.464;13.480;2022-08-30T07:14:05;12.68;;;7.88;;
9310;SDS011;4694;52.464;13.480;2022-08-30T07:16:32;11.23;;;8.32;;
9310;SDS011;4694;52.464;13.480;2022-08-30T07:19:00;12.35;;;7.75;;
9310;SDS011;4694;52.464;13.480;2022-08-30T07:21:27;9.77;;;6.97;;
9310;SDS011;4694;52.464;13.480;2022-08-30T07:23:56;10.63;;;6.88;;
9310;SDS011;4694;52.464;13.480;2022-08-30T07:26:26;12.85;;;6.47;;
9310;SDS011;4694;52.464;13.480;2022-08-30T07:28:53;9.43;;;6.18;;
9310;SDS011;4694;52.464;13.480;2022-08-30T07:31:20;9.75;;;6.35;;
9310;SDS011;4694;52.464;13.480;2022-08-30T07:33:47;11.20;;;7.50;;
9310;SDS011;4694;52.464;13.480;2022-08-30T07:36:15;11.48;;;8.10;;
9310;SDS011;4694;52.464;13.480;2022-08-30T07:38:42;12.25;;;7.40;;
9310;SDS011;4694;52.464;13.480;2022-08-30T07:41:14;11.18;;;6.13;;
9310;SDS011;4694;52.464;13.480;2022-08-30T07:43:43;12.60;;;6.55;;
9310;SDS011;4694;52.464;13.480;2022-08-30T07:46:10;9.15;;;5.90;;
9310;SDS011;4694;52.464;13.480;2022-08-30T07:48:37;10.90;;;5.97;;
9310;SDS011;4694;52.464;13.480;2022-08-30T07:51:07;12.20;;;6.28;;
9310;SDS011;4694;52.464;13.480;2022-08-30T07:53:34;9.57;;;5.77;;
9310;SDS011;4694;52.464;13.480;2022-08-30T07:56:01;8.70;;;5.88;;
9310;SDS011;4694;52.464;13.480;2022-08-30T07:58:28;6.57;;;5.50;;
9310;SDS011;4694;52.464;13.480;2022-08-30T08:00:57;9.77;;;5.97;;
9310;SDS011;4694;52.464;13.480;2022-08-30T08:03:24;6.35;;;5.20;;
9310;SDS011;4694;52.464;13.480;2022-08-30T08:05:51;7.30;;;4.97;;
9310;SDS011;4694;52.464;13.480;2022-08-30T08:08:18;6.03;;;4.85;;
9310;SDS011;4694;52.464;13.480;2022-08-30T08:10:46;10.55;;;6.68;;
9310;SDS011;4694;52.464;13.480;2022-08-30T08:13:13;9.23;;;5.97;;
9310;SDS011;4694;52.464;13.480;2022-08-30T08:15:40;7.85;;;6.03;;
9310;SDS011;4694;52.464;13.480;2022-08-30T08:18:08;7.38;;;5.18;;
9310;SDS011;4694;52.464;13.480;2022-08-30T08:20:35;5.93;;;4.95;;
9310;SDS011;4694;52.464;13.480;2022-08-30T08:23:02;5.38;;;4.85;;
9310;SDS011;4694;52.464;13.480;2022-08-30T08:25:30;5.75;;;4.28;;
9310;SDS011;4694;52.464;13.480;2022-08-30T08:27:57;8.65;;;4.70;;
9310;SDS011;4694;52.464;13.480;2022-08-30T08:30:24;5.40;;;4.60;;
9310;SDS011;4694;52.464;13.480;2022-08-30T08:32:51;4.70;;;4.13;;
9310;SDS011;4694;52.464;13.480;2022-08-30T08:35:19;4.80;;;3.90;;
9310;SDS011;4694;52.464;13.480;2022-08-30T08:37:46;5.00;;;3.58;;
9310;SDS011;4694;52.464;13.480;2022-08-30T08:40:15;4.70;;;3.70;;
9310;SDS011;4694;52.464;13.480;2022-08-30T08:42:47;4.93;;;4.18;;
9310;SDS011;4694;52.464;13.480;2022-08-30T08:45:18;3.72;;;3.30;;
9310;SDS011;4694;52.464;13.480;2022-08-30T08:47:50;4.72;;;2.58;;
9310;SDS011;4694;52.464;13.480;2022-08-30T08:50:22;4.15;;;2.35;;
9310;SDS011;4694;52.464;13.480;2022-08-30T08:52:49;3.95;;;2.28;;
9310;SDS011;4694;52.464;13.480;2022-08-30T08:55:36;3.67;;;1.92;;
9310;SDS011;4694;52.464;13.480;2022-08-30T08:58:03;1.95;;;1.75;;
9310;SDS011;4694;52.464;13.480;2022-08-30T09:00:31;3.65;;;1.90;;
9310;SDS011;4694;52.464;13.480;2022-08-30T09:02:59;1.45;;;1.25;;
9310;SDS011;4694;52.464;13.480;2022-08-30T09:05:30;3.05;;;1.80;;
9310;SDS011;4694;52.464;13.480;2022-08-30T09:08:01;2.80;;;1.85;;
9310;SDS011;4694;52.464;13.480;2022-08-30T09:10:28;1.67;;;1.45;;
9310;SDS011;4694;52.464;13.480;2022-08-30T09:12:56;3.40;;;1.75;;
9310;SDS011;4694;52.464;13.480;2022-08-30T09:15:24;2.70;;;2.38;;
9310;SDS011;4694;52.464;13.480;2022-08-30T09:17:53;2.67;;;1.30;;
9310;SDS011;4694;52.464;13.480;2022-08-30T09:20:29;3.15;;;1.63;;
9310;SDS011;4694;52.464;13.480;2022-08-30T09:22:57;2.63;;;1.30;;
9310;SDS011;4694;52.464;13.480;2022-08-30T09:25:26;2.75;;;1.50;;
9310;SDS011;4694;52.464;13.480;2022-08-30T09:27:54;1.65;;;1.10;;
9310;SDS011;4694;52.464;13.480;2022-08-30T09:30:33;1.20;;;0.80;;
9310;SDS011;4694;52.464;13.480;2022-08-30T09:33:01;1.90;;;1.17;;
9310;SDS011;4694;52.464;13.480;2022-08-30T09:35:33;1.23;;;0.80;;
9310;SDS011;4694;52.464;13.480;2022-08-30T09:38:02;1.17;;;1.08;;
9310;SDS011;4694;52.464;13.480;2022-08-30T09:40:33;2.88;;;1.30;;
9310;SDS011;4694;52.464;13.480;2022-08-30T09:43:06;2.33;;;1.00;;
9310;SDS011;4694;52.464;13.480;2022-08-30T09:45:35;1.35;;;0.90;;
9310;SDS011;4694;52.464;13.480;2022-08-30T09:48:23;2.00;;;0.63;;
9310;SDS011;4694;52.464;13.480;2022-08-30T09:50:55;1.05;;;0.63;;
9310;SDS011;4694;52.464;13.480;2022-08-30T09:53:24;1.48;;;0.57;;
9310;SDS011;4694;52.464;13.480;2022-08-30T09:56:00;1.38;;;0.63;;
9310;SDS011;4694;52.464;13.480;2022-08-30T09:58:33;1.25;;;0.50;;
9310;SDS011;4694;52.464;13.480;2022-08-30T10:01:06;0.63;;;0.30;;
9310;SDS011;4694;52.464;13.480;2022-08-30T10:03:35;0.82;;;0.30;;
9310;SDS011;4694;52.464;13.480;2022-08-30T10:06:08;0.85;;;0.30;;
9310;SDS011;4694;52.464;13.480;2022-08-30T10:08:47;0.70;;;0.38;;
9310;SDS011;4694;52.464;13.480;2022-08-30T10:11:18;1.65;;;0.30;;
9310;SDS011;4694;52.464;13.480;2022-08-30T10:13:52;0.88;;;0.65;;
9310;SDS011;4694;52.464;13.480;2022-08-30T10:16:26;1.45;;;0.50;;
9310;SDS011;4694;52.464;13.480;2022-08-30T10:19:01;2.25;;;0.30;;
9310;SDS011;4694;52.464;13.480;2022-08-30T10:21:32;0.65;;;0.30;;
9310;SDS011;4694;52.464;13.480;2022-08-30T10:24:01;1.40;;;0.30;;
9310;SDS011;4694;52.464;13.480;2022-08-30T10:26:30;3.00;;;0.43;;
9310;SDS011;4694;52.464;13.480;2022-08-30T10:29:00;1.90;;;0.30;;
9310;SDS011;4694;52.464;13.480;2022-08-30T10:33:56;1.23;;;0.32;;
9310;SDS011;4694;52.464;13.480;2022-08-30T10:36:26;0.50;;;0.30;;
9310;SDS011;4694;52.464;13.480;2022-08-30T10:38:55;1.17;;;0.40;;
9310;SDS011;4694;52.464;13.480;2022-08-30T10:41:26;0.85;;;0.40;;
9310;SDS011;4694;52.464;13.480;2022-08-30T10:43:56;0.73;;;0.30;;
9310;SDS011;4694;52.464;13.480;2022-08-30T10:46:27;1.40;;;0.20;;
9310;SDS011;4694;52.464;13.480;2022-08-30T10:48:55;0.68;;;0.22;;
9310;SDS011;4694;52.464;13.480;2022-08-30T10:51:25;0.90;;;0.40;;
9310;SDS011;4694;52.464;13.480;2022-08-30T10:53:54;0.43;;;0.43;;
9310;SDS011;4694;52.464;13.480;2022-08-30T10:56:24;0.23;;;0.20;;
9310;SDS011;4694;52.464;13.480;2022-08-30T10:58:53;0.70;;;0.30;;
9310;SDS011;4694;52.464;13.480;2022-08-30T11:01:26;0.30;;;0.22;;
9310;SDS011;4694;52.464;13.480;2022-08-30T11:04:01;0.43;;;0.28;;
9310;SDS011;4694;52.464;13.480;2022-08-30T11:06:35;1.55;;;0.40;;
9310;SDS011;4694;52.464;13.480;2022-08-30T11:09:09;0.80;;;0.50;;
9310;SDS011;4694;52.464;13.480;2022-08-30T11:11:45;0.57;;;0.40;;
9310;SDS011;4694;52.464;13.480;2022-08-30T11:14:17;0.47;;;0.38;;
9310;SDS011;4694;52.464;13.480;2022-08-30T11:16:46;1.52;;;0.30;;
9310;SDS011;4694;52.464;13.480;2022-08-30T11:19:15;0.40;;;0.40;;
9310;SDS011;4694;52.464;13.480;2022-08-30T11:21:43;0.57;;;0.43;;
9310;SDS011;4694;52.464;13.480;2022-08-30T11:24:12;2.25;;;0.82;;
9310;SDS011;4694;52.464;13.480;2022-08-30T11:26:56;0.98;;;0.70;;
9310;SDS011;4694;52.464;13.480;2022-08-30T11:29:27;3.13;;;1.35;;
9310;SDS011;4694;52.464;13.480;2022-08-30T11:31:55;1.15;;;0.45;;
9310;SDS011;4694;52.464;13.480;2022-08-30T11:37:10;2.50;;;1.13;;
9310;SDS011;4694;52.464;13.480;2022-08-30T11:39:50;1.02;;;0.50;;
9310;SDS011;4694;52.464;13.480;2022-08-30T11:42:27;1.42;;;0.30;;
9310;SDS011;4694;52.464;13.480;2022-08-30T11:47:37;1.15;;;0.40;;
9310;SDS011;4694;52.464;13.480;2022-08-30T11:50:06;1.90;;;0.40;;
9310;SDS011;4694;52.464;13.480;2022-08-30T11:55:13;0.70;;;0.40;;
9310;SDS011;4694;52.464;13.480;2022-08-30T11:57:43;1.00;;;0.55;;
9310;SDS011;4694;52.464;13.480;2022-08-30T12:00:24;1.15;;;0.80;;
9310;SDS011;4694;52.464;13.480;2022-08-30T12:02:53;0.88;;;0.80;;
9310;SDS011;4694;52.464;13.480;2022-08-30T12:08:07;1.15;;;0.98;;
9310;SDS011;4694;52.464;13.480;2022-08-30T12:10:35;0.82;;;0.82;;
9310;SDS011;4694;52.464;13.480;2022-08-30T12:13:04;0.63;;;0.35;;
9310;SDS011;4694;52.464;13.480;2022-08-30T12:18:13;2.33;;;0.90;;
9310;SDS011;4694;52.464;13.480;2022-08-30T12:20:53;0.70;;;0.35;;
9310;SDS011;4694;52.464;13.480;2022-08-30T12:23:26;3.00;;;0.43;;
9310;SDS011;4694;52.464;13.480;2022-08-30T12:26:08;0.95;;;0.40;;
9310;SDS011;4694;52.464;13.480;2022-08-30T12:28:37;0.95;;;0.50;;
9310;SDS011;4694;52.464;13.480;2022-08-30T12:31:07;1.40;;;0.93;;
9310;SDS011;4694;52.464;13.480;2022-08-30T12:33:37;0.60;;;0.40;;
9310;SDS011;4694;52.464;13.480;2022-08-30T12:36:05;0.95;;;0.40;;
9310;SDS011;4694;52.464;13.480;2022-08-30T12:38:32;1.35;;;0.40;;
9310;SDS011;4694;52.464;13.480;2022-08-30T12:41:00;1.75;;;0.50;;
9310;SDS011;4694;52.464;13.480;2022-08-30T12:43:29;1.95;;;0.43;;
9310;SDS011;4694;52.464;13.480;2022-08-30T12:45:59;0.47;;;0.40;;
9310;SDS011;4694;52.464;13.480;2022-08-30T12:48:27;0.60;;;0.40;;
9310;SDS011;4694;52.464;13.480;2022-08-30T12:50:56;1.65;;;0.70;;
9310;SDS011;4694;52.464;13.480;2022-08-30T12:53:26;3.33;;;0.43;;
9310;SDS011;4694;52.464;13.480;2022-08-30T12:55:55;0.55;;;0.40;;
9310;SDS011;4694;52.464;13.480;2022-08-30T12:58:33;0.40;;;0.30;;
9310;SDS011;4694;52.464;13.480;2022-08-30T13:01:12;1.00;;;0.90;;
9310;SDS011;4694;52.464;13.480;2022-08-30T13:03:39;2.67;;;0.40;;
9310;SDS011;4694;52.464;13.480;2022-08-30T13:06:07;1.20;;;0.30;;
9310;SDS011;4694;52.464;13.480;2022-08-30T13:08:35;4.60;;;0.70;;
9310;SDS011;4694;52.464;13.480;2022-08-30T13:11:03;1.73;;;0.30;;
9310;SDS011;4694;52.464;13.480;2022-08-30T13:13:33;2.43;;;0.30;;
9310;SDS011;4694;52.464;13.480;2022-08-30T13:18:29;0.98;;;0.30;;
9310;SDS011;4694;52.464;13.480;2022-08-30T13:23:42;2.80;;;0.68;;
9310;SDS011;4694;52.464;13.480;2022-08-30T13:26:09;0.60;;;0.50;;
9310;SDS011;4694;52.464;13.480;2022-08-30T13:28:44;1.70;;;0.40;;
9310;SDS011;4694;52.464;13.480;2022-08-30T13:31:11;1.02;;;0.40;;
9310;SDS011;4694;52.464;13.480;2022-08-30T13:33:39;1.35;;;0.65;;
9310;SDS011;4694;52.464;13.480;2022-08-30T13:36:09;0.68;;;0.50;;
9310;SDS011;4694;52.464;13.480;2022-08-30T13:38:36;2.25;;;0.90;;
9310;SDS011;4694;52.464;13.480;2022-08-30T13:41:03;1.23;;;0.80;;
9310;SDS011;4694;52.464;13.480;2022-08-30T13:43:30;0.80;;;0.80;;
9310;SDS011;4694;52.464;13.480;2022-08-30T13:45:57;1.60;;;0.70;;
9310;SDS011;4694;52.464;13.480;2022-08-30T13:48:24;2.25;;;0.80;;
9310;SDS011;4694;52.464;13.480;2022-08-30T13:50:53;1.35;;;1.17;;
9310;SDS011;4694;52.464;13.480;2022-08-30T13:53:21;4.85;;;0.70;;
9310;SDS011;4694;52.464;13.480;2022-08-30T13:55:48;0.98;;;0.82;;
9310;SDS011;4694;52.464;13.480;2022-08-30T13:58:15;0.90;;;0.70;;
9310;SDS011;4694;52.464;13.480;2022-08-30T14:00:42;1.05;;;0.70;;
9310;SDS011;4694;52.464;13.480;2022-08-30T14:03:09;0.73;;;0.70;;
9310;SDS011;4694;52.464;13.480;2022-08-30T14:05:37;1.50;;;0.88;;
9310;SDS011;4694;52.464;13.480;2022-08-30T14:08:07;1.52;;;1.00;;
9310;SDS011;4694;52.464;13.480;2022-08-30T14:10:35;0.90;;;0.77;;
9310;SDS011;4694;52.464;13.480;2022-08-30T14:13:02;1.45;;;0.88;;
9310;SDS011;4694;52.464;13.480;2022-08-30T14:15:30;1.60;;;1.00;;
9310;SDS011;4694;52.464;13.480;2022-08-30T14:17:58;1.60;;;1.35;;
9310;SDS011;4694;52.464;13.480;2022-08-30T14:20:25;1.38;;;1.13;;
9310;SDS011;4694;52.464;13.480;2022-08-30T14:22:53;2.80;;;1.17;;
9310;SDS011;4694;52.464;13.480;2022-08-30T14:25:21;3.42;;;1.48;;
9310;SDS011;4694;52.464;13.480;2022-08-30T14:27:49;3.22;;;1.50;;
9310;SDS011;4694;52.464;13.480;2022-08-30T14:30:16;2.13;;;1.23;;
9310;SDS011;4694;52.464;13.480;2022-08-30T14:32:43;3.05;;;2.08;;
9310;SDS011;4694;52.464;13.480;2022-08-30T14:35:11;3.10;;;1.63;;
9310;SDS011;4694;52.464;13.480;2022-08-30T14:37:38;2.50;;;1.83;;
9310;SDS011;4694;52.464;13.480;2022-08-30T14:40:05;2.65;;;1.35;;
9310;SDS011;4694;52.464;13.480;2022-08-30T14:42:33;4.32;;;1.50;;
9310;SDS011;4694;52.464;13.480;2022-08-30T14:45:00;3.45;;;1.70;;
9310;SDS011;4694;52.464;13.480;2022-08-30T14:47:28;2.08;;;1.73;;
9310;SDS011;4694;52.464;13.480;2022-08-30T14:49:55;2.08;;;1.92;;
9310;SDS011;4694;52.464;13.480;2022-08-30T14:52:24;3.92;;;2.33;;
9310;SDS011;4694;52.464;13.480;2022-08-30T14:54:52;3.80;;;1.83;;
9310;SDS011;4694;52.464;13.480;2022-08-30T14:57:19;4.43;;;2.33;;
9310;SDS011;4694;52.464;13.480;2022-08-30T14:59:47;2.00;;;1.52;;
9310;SDS011;4694;52.464;13.480;2022-08-30T15:02:14;2.88;;;1.25;;
9310;SDS011;4694;52.464;13.480;2022-08-30T15:04:41;2.58;;;1.42;;
9310;SDS011;4694;52.464;13.480;2022-08-30T15:07:08;2.22;;;1.67;;
9310;SDS011;4694;52.464;13.480;2022-08-30T15:09:35;3.50;;;2.00;;
9310;SDS011;4694;52.464;13.480;2022-08-30T15:12:02;2.17;;;1.85;;
9310;SDS011;4694;52.464;13.480;2022-08-30T15:14:30;3.22;;;1.85;;
9310;SDS011;4694;52.464;13.480;2022-08-30T15:16:59;2.20;;;2.00;;
9310;SDS011;4694;52.464;13.480;2022-08-30T15:19:27;3.70;;;1.70;;
9310;SDS011;4694;52.464;13.480;2022-08-30T15:21:57;2.72;;;2.00;;
9310;SDS011;4694;52.464;13.480;2022-08-30T15:24:24;2.28;;;1.55;;
9310;SDS011;4694;52.464;13.480;2022-08-30T15:26:51;3.25;;;1.88;;